Deer Park, Wisconsin
Current Conditions -  °F | °C
As of 11:15 PM on Sunday 21 Dec 2014 (Local Time) from KRNH Reporting Station
Drizzle Drizzle  
Wind Chill: 29°   Ceiling: 1000
Heat Index: 35°   Visibility: 7mi
Dew Point: 35°   Wind: 7mph
Humidity: 100%   Direction: 150°SSE
Pressure: 29.75"   Gusts: NA
Location:  45.19°N, 92.39°W
Report Text: KRNH 220515Z AUTO 15006KT 7SM DZ OVC010 02/02 A2975 RMK AO2 T00180018
Loading
Personal Weather Stations






























Interactive Weather Map New forecast layout! Learn more

10-Day Weather Forecast

Advertisements
Track Severe Weather on mobile